Time;durP1;ratioP1;P1;durP2;ratioP2;P2;SDS_P1;SDS_P2;PMS_P1;PMS_P2;Temp;Humidity;BMP_temperature;BMP_pressure;BME280_temperature;BME280_humidity;BME280_pressure;Samples;Min_cycle;Max_cycle;Signal;HPM_P1;HPM_P2
2021/01/02 00:01:00;;;;;;;33.43;16.63;;;3.10;99.90;;;;;;5091239;28;20052;-69
2021/01/02 00:04:09;;;;;;;32.33;16.00;;;3.10;99.90;;;;;;5091983;28;20488;-69
2021/01/02 00:07:14;;;;;;;32.63;16.03;;;3.10;99.90;;;;;;5091439;28;20044;-69
2021/01/02 00:09:43;;;;;;;30.70;15.40;;;3.10;99.90;;;;;;5092190;28;20411;-69
2021/01/02 00:12:34;;;;;;;29.90;15.53;;;3.10;99.90;;;;;;5091393;28;20552;-69
2021/01/02 00:15:05;;;;;;;27.37;15.07;;;3.10;99.90;;;;;;5091585;28;20546;-69
2021/01/02 00:18:04;;;;;;;27.00;14.53;;;3.10;99.90;;;;;;5091638;28;20055;-69
2021/01/02 00:21:11;;;;;;;30.67;15.93;;;3.10;99.90;;;;;;5091233;28;20109;-69
2021/01/02 00:24:14;;;;;;;28.43;15.17;;;3.10;99.90;;;;;;5091223;28;20051;-69
2021/01/02 00:26:44;;;;;;;28.73;14.83;;;3.10;99.90;;;;;;5091674;28;20769;-70
2021/01/02 00:29:18;;;;;;;31.47;15.40;;;3.10;99.90;;;;;;5091357;28;20063;-69
2021/01/02 00:32:04;;;;;;;25.60;13.73;;;3.10;99.90;;;;;;5091112;28;20071;-69
2021/01/02 00:34:58;;;;;;;27.73;14.53;;;3.10;99.90;;;;;;5093564;28;20411;-69
2021/01/02 00:37:29;;;;;;;28.07;14.70;;;3.10;99.90;;;;;;5091319;28;20048;-69
2021/01/02 00:40:10;;;;;;;29.83;15.03;;;3.10;99.90;;;;;;5091053;28;20098;-69
2021/01/02 00:42:38;;;;;;;26.87;14.03;;;3.10;99.90;;;;;;5091394;28;20070;-69
2021/01/02 00:45:09;;;;;;;28.63;14.43;;;3.10;99.90;;;;;;5091195;28;20062;-69
2021/01/02 00:47:37;;;;;;;32.83;16.30;;;3.00;99.90;;;;;;5090997;28;20044;-69
2021/01/02 00:50:06;;;;;;;29.97;16.03;;;3.00;99.90;;;;;;5090864;28;20059;-69
2021/01/02 00:52:54;;;;;;;33.60;16.40;;;3.00;99.90;;;;;;5090813;28;20054;-70
2021/01/02 00:55:42;;;;;;;31.73;15.67;;;3.00;99.90;;;;;;5080960;28;20504;-70
2021/01/02 00:58:13;;;;;;;29.43;15.00;;;3.00;99.90;;;;;;5091390;28;20514;-69
2021/01/02 01:00:42;;;;;;;32.97;16.73;;;3.00;99.90;;;;;;5090454;28;20496;-70
2021/01/02 01:03:28;;;;;;;32.23;15.87;;;3.00;99.90;;;;;;5091253;28;20048;-69
2021/01/02 01:06:04;;;;;;;29.80;15.83;;;3.00;99.90;;;;;;5090665;28;20052;-69
2021/01/02 01:08:33;;;;;;;34.03;16.67;;;3.00;99.90;;;;;;5091071;28;20097;-70
2021/01/02 01:11:02;;;;;;;26.37;14.83;;;3.00;99.90;;;;;;5090045;28;20048;-70
2021/01/02 01:13:29;;;;;;;34.07;16.03;;;3.00;99.90;;;;;;5091419;28;20484;-69
2021/01/02 01:15:57;;;;;;;29.63;15.73;;;3.00;99.90;;;;;;5089922;28;20062;-70
2021/01/02 01:18:47;;;;;;;31.70;16.50;;;3.00;99.90;;;;;;5090751;28;20412;-70
2021/01/02 01:21:16;;;;;;;31.60;16.20;;;2.90;99.90;;;;;;5090331;28;20055;-69
2021/01/02 01:24:03;;;;;;;31.47;16.10;;;3.00;99.90;;;;;;5090642;28;20495;-69
2021/01/02 01:26:44;;;;;;;28.80;15.47;;;3.00;99.90;;;;;;5090919;28;20048;-69
2021/01/02 01:29:18;;;;;;;28.17;14.77;;;3.00;99.90;;;;;;5090820;28;20056;-69
2021/01/02 01:31:47;;;;;;;27.83;15.33;;;2.90;99.90;;;;;;5090520;28;20060;-69
2021/01/02 01:34:21;;;;;;;29.93;16.03;;;2.90;99.90;;;;;;5088152;28;20151;-71
2021/01/02 01:36:49;;;;;;;32.57;15.97;;;2.90;99.90;;;;;;5090482;28;20052;-69
2021/01/02 01:39:16;;;;;;;27.73;14.10;;;2.90;99.90;;;;;;5090754;28;20044;-69
2021/01/02 01:41:45;;;;;;;27.80;14.40;;;3.00;99.90;;;;;;5090306;28;20071;-70
2021/01/02 01:44:44;;;;;;;30.20;15.43;;;3.00;99.90;;;;;;5090777;28;20056;-69
2021/01/02 01:47:19;;;;;;;29.00;15.20;;;3.00;99.90;;;;;;5090080;28;20471;-70
2021/01/02 01:50:15;;;;;;;31.93;15.23;;;3.00;99.90;;;;;;5090669;28;20048;-69
2021/01/02 01:53:29;;;;;;;26.73;14.33;;;2.90;99.90;;;;;;5090329;28;20173;-69
2021/01/02 01:56:03;;;;;;;27.60;13.53;;;2.90;99.90;;;;;;5094239;28;20044;-70
2021/01/02 01:58:57;;;;;;;29.83;14.60;;;2.80;99.90;;;;;;5094086;28;20060;-69
2021/01/02 02:01:25;;;;;;;28.27;14.37;;;2.80;99.90;;;;;;5081363;28;20109;-69
2021/01/02 02:04:44;;;;;;;27.63;13.90;;;2.80;99.90;;;;;;5094058;28;20052;-69
2021/01/02 02:07:16;;;;;;;27.92;14.40;;;2.70;99.90;;;;;;5093993;28;20062;-70
2021/01/02 02:09:45;;;;;;;29.50;14.33;;;2.70;99.90;;;;;;5094001;28;20055;-69
2021/01/02 02:12:22;;;;;;;30.63;14.80;;;2.70;99.90;;;;;;5093745;28;20139;-70
2021/01/02 02:15:05;;;;;;;34.00;15.83;;;2.70;99.90;;;;;;5094149;28;20047;-69
2021/01/02 02:17:41;;;;;;;29.83;15.10;;;2.70;99.90;;;;;;5094109;28;20048;-69
2021/01/02 02:20:10;;;;;;;25.50;13.07;;;2.60;99.90;;;;;;5093209;28;20440;-69
2021/01/02 02:22:39;;;;;;;29.77;13.83;;;2.60;99.90;;;;;;5094048;28;20118;-69
2021/01/02 02:25:09;;;;;;;26.37;14.10;;;2.60;99.90;;;;;;5093024;28;20408;-69
2021/01/02 02:27:37;;;;;;;25.67;12.70;;;2.50;99.90;;;;;;5093987;28;20184;-69
2021/01/02 02:30:10;;;;;;;29.83;14.23;;;2.50;99.90;;;;;;5093732;28;20055;-70
2021/01/02 02:32:39;;;;;;;25.67;12.97;;;2.40;99.90;;;;;;5093561;28;20062;-69
2021/01/02 02:35:10;;;;;;;31.27;13.43;;;2.30;99.90;;;;;;5093380;28;20496;-70
2021/01/02 02:37:41;;;;;;;28.17;13.47;;;2.10;99.90;;;;;;5093797;28;20055;-69
2021/01/02 02:40:09;;;;;;;31.87;13.70;;;2.00;99.90;;;;;;5093061;28;20055;-69
2021/01/02 02:42:39;;;;;;;34.50;14.13;;;1.90;99.90;;;;;;5094287;28;20052;-69
2021/01/02 02:45:11;;;;;;;32.53;14.50;;;1.90;99.90;;;;;;5094163;28;20051;-69
2021/01/02 02:47:40;;;;;;;31.10;14.87;;;1.80;99.90;;;;;;5094038;28;20044;-69
2021/01/02 02:50:18;;;;;;;29.97;13.80;;;1.70;99.90;;;;;;5092663;28;20063;-69
2021/01/02 02:52:49;;;;;;;34.03;13.87;;;1.70;99.90;;;;;;5093532;28;20055;-69
2021/01/02 02:55:16;;;;;;;32.37;15.37;;;1.70;99.90;;;;;;5092886;28;20122;-69
2021/01/02 02:57:48;;;;;;;32.93;15.10;;;1.70;99.90;;;;;;5093235;28;20056;-69
2021/01/02 03:00:18;;;;;;;33.00;14.10;;;1.70;99.90;;;;;;5092906;28;20047;-69
2021/01/02 03:02:49;;;;;;;30.23;13.13;;;1.60;99.90;;;;;;5093344;28;20542;-69
2021/01/02 03:05:18;;;;;;;35.77;13.90;;;1.60;99.90;;;;;;5092543;28;20044;-69
2021/01/02 03:07:47;;;;;;;29.27;13.83;;;1.60;99.90;;;;;;5092064;28;20086;-69
2021/01/02 03:10:16;;;;;;;29.57;13.80;;;1.60;99.90;;;;;;5092599;28;20055;-69
2021/01/02 03:12:44;;;;;;;31.60;14.13;;;1.60;99.90;;;;;;5092618;28;20044;-69
2021/01/02 03:15:13;;;;;;;34.63;15.07;;;1.60;99.90;;;;;;5093256;28;20051;-69
2021/01/02 03:17:41;;;;;;;32.57;15.63;;;1.60;99.90;;;;;;5092689;28;20113;-69
2021/01/02 03:20:09;;;;;;;32.90;16.43;;;1.60;99.90;;;;;;5092679;28;20386;-69
2021/01/02 03:22:38;;;;;;;36.53;15.03;;;1.70;99.90;;;;;;5092460;28;20060;-69
2021/01/02 03:25:06;;;;;;;35.40;15.17;;;1.70;99.90;;;;;;5092447;28;20059;-69
2021/01/02 03:27:33;;;;;;;31.60;14.77;;;1.70;99.90;;;;;;5091854;28;20056;-69
2021/01/02 03:29:59;;;;;;;33.90;16.30;;;1.70;99.90;;;;;;5092585;28;20492;-69
2021/01/02 03:32:26;;;;;;;39.07;16.37;;;1.80;99.90;;;;;;5091952;28;20512;-69
2021/01/02 03:34:53;;;;;;;34.33;16.57;;;1.80;99.90;;;;;;5092553;28;20048;-70
2021/01/02 03:37:19;;;;;;;34.33;15.93;;;1.80;99.90;;;;;;5092019;28;20070;-69
2021/01/02 03:39:47;;;;;;;32.23;15.63;;;1.80;99.90;;;;;;5092720;28;20353;-69
2021/01/02 03:42:14;;;;;;;32.93;15.30;;;1.90;99.90;;;;;;5092167;28;20516;-69
2021/01/02 03:44:40;;;;;;;30.50;15.50;;;1.90;99.90;;;;;;5092422;28;20101;-69
2021/01/02 03:47:07;;;;;;;32.00;15.63;;;1.90;99.90;;;;;;5092205;28;20056;-69
2021/01/02 03:49:34;;;;;;;33.43;15.77;;;1.90;99.90;;;;;;5091693;28;20404;-69
2021/01/02 03:52:02;;;;;;;31.03;15.30;;;1.90;99.90;;;;;;5092193;28;20052;-69
2021/01/02 03:54:29;;;;;;;29.73;14.43;;;2.00;99.90;;;;;;5091713;28;20055;-69
2021/01/02 03:56:57;;;;;;;31.13;15.87;;;2.00;99.90;;;;;;5090520;28;20173;-69
2021/01/02 03:59:23;;;;;;;35.97;16.67;;;2.00;99.90;;;;;;5090711;28;20052;-69
2021/01/02 04:01:55;;;;;;;32.40;15.83;;;1.90;99.90;;;;;;5091653;28;20052;-69
2021/01/02 04:04:22;;;;;;;32.73;15.07;;;1.90;99.90;;;;;;5091568;28;20104;-69
2021/01/02 04:06:50;;;;;;;32.50;16.27;;;2.10;99.90;;;;;;5092197;28;20055;-69
2021/01/02 04:09:17;;;;;;;35.47;16.10;;;2.00;99.90;;;;;;5092159;28;20059;-70
2021/01/02 04:11:44;;;;;;;32.50;15.50;;;2.00;99.90;;;;;;5092228;28;20488;-69
2021/01/02 04:14:13;;;;;;;31.57;16.30;;;2.00;99.90;;;;;;5091532;28;20051;-69
2021/01/02 04:16:40;;;;;;;33.70;15.33;;;2.00;99.90;;;;;;5090911;28;20492;-69
2021/01/02 04:19:08;;;;;;;30.57;14.53;;;1.90;99.90;;;;;;5091919;28;20083;-69
2021/01/02 04:21:35;;;;;;;31.70;14.70;;;2.00;99.90;;;;;;5090860;28;20048;-71
2021/01/02 04:24:02;;;;;;;36.50;14.70;;;2.10;99.90;;;;;;5091960;28;20537;-69
2021/01/02 04:26:29;;;;;;;29.77;14.57;;;2.10;99.90;;;;;;5091779;28;20048;-69
2021/01/02 04:28:56;;;;;;;36.53;15.63;;;2.00;99.90;;;;;;5091452;28;20052;-69
2021/01/02 04:31:34;;;;;;;34.93;15.07;;;2.00;99.90;;;;;;5090954;28;20052;-69
2021/01/02 04:34:01;;;;;;;33.97;14.90;;;2.10;99.90;;;;;;5091371;28;20451;-70
2021/01/02 04:36:28;;;;;;;35.97;15.53;;;2.10;99.90;;;;;;5091184;28;20506;-70
2021/01/02 04:38:54;;;;;;;34.43;15.67;;;2.10;99.90;;;;;;5091659;28;20442;-69
2021/01/02 04:41:21;;;;;;;33.77;16.13;;;2.00;99.90;;;;;;5090609;28;20100;-69
2021/01/02 04:43:49;;;;;;;36.33;16.57;;;2.10;99.90;;;;;;5091614;28;20090;-69
2021/01/02 04:46:16;;;;;;;38.97;20.10;;;2.00;99.90;;;;;;5091199;28;20052;-69
2021/01/02 04:48:45;;;;;;;38.67;16.53;;;2.00;99.90;;;;;;5091159;28;20047;-69
2021/01/02 04:51:13;;;;;;;36.90;17.07;;;2.00;99.90;;;;;;5090558;28;20514;-71
2021/01/02 04:53:40;;;;;;;36.67;16.10;;;2.00;99.90;;;;;;5090289;28;20052;-69
2021/01/02 04:56:09;;;;;;;32.90;16.03;;;1.90;99.90;;;;;;5091382;28;20048;-69
2021/01/02 04:58:37;;;;;;;36.27;17.10;;;1.80;99.90;;;;;;5092256;28;20051;-69
2021/01/02 05:01:05;;;;;;;44.20;18.20;;;1.90;99.90;;;;;;5092123;28;20044;-69
2021/01/02 05:03:34;;;;;;;33.40;15.60;;;1.90;99.90;;;;;;5090938;28;20416;-69
2021/01/02 05:06:02;;;;;;;36.53;17.50;;;1.90;99.90;;;;;;5090975;28;20531;-69
2021/01/02 05:08:29;;;;;;;36.27;16.67;;;1.80;99.90;;;;;;5090821;28;20480;-69
2021/01/02 05:10:58;;;;;;;35.67;15.53;;;1.80;99.90;;;;;;5090761;28;20055;-69
2021/01/02 05:13:29;;;;;;;37.60;17.73;;;1.80;99.90;;;;;;5090758;28;20091;-69
2021/01/02 05:15:57;;;;;;;32.83;15.77;;;1.80;99.90;;;;;;5091335;28;20051;-69
2021/01/02 05:18:23;;;;;;;29.40;15.27;;;1.90;99.90;;;;;;5090952;28;20408;-69
2021/01/02 05:20:50;;;;;;;34.07;15.17;;;1.80;99.90;;;;;;5090700;28;20047;-69
2021/01/02 05:23:18;;;;;;;33.30;15.87;;;1.80;99.90;;;;;;5090871;28;20113;-69
2021/01/02 05:25:44;;;;;;;34.73;14.50;;;1.80;99.90;;;;;;5091087;28;20055;-69
2021/01/02 05:28:18;;;;;;;32.77;16.33;;;1.90;99.90;;;;;;5090678;28;20056;-69
2021/01/02 05:30:45;;;;;;;34.00;16.60;;;1.90;99.90;;;;;;5094038;28;20527;-70
2021/01/02 05:33:14;;;;;;;35.87;16.30;;;1.90;99.90;;;;;;5095098;28;20086;-69
2021/01/02 05:35:43;;;;;;;29.00;14.37;;;2.10;99.90;;;;;;5095037;28;20056;-69
2021/01/02 05:38:18;;;;;;;32.47;14.20;;;2.10;99.90;;;;;;5094812;28;20054;-69
2021/01/02 05:40:51;;;;;;;37.90;15.43;;;2.00;99.90;;;;;;5094521;28;20048;-69
2021/01/02 05:43:20;;;;;;;32.47;15.43;;;1.90;99.90;;;;;;5095039;28;20052;-69
2021/01/02 05:45:47;;;;;;;35.90;15.90;;;1.90;99.90;;;;;;5094422;28;20399;-69
2021/01/02 05:48:16;;;;;;;33.10;14.40;;;2.00;99.90;;;;;;5094599;28;20043;-69
2021/01/02 05:50:44;;;;;;;36.63;14.20;;;2.10;99.90;;;;;;5094240;28;20065;-69
2021/01/02 05:53:39;;;;;;;34.97;15.10;;;2.10;99.90;;;;;;5094531;28;20054;-69
2021/01/02 05:56:09;;;;;;;34.57;15.83;;;1.90;99.90;;;;;;5057689;28;20556;-69
2021/01/02 05:58:39;;;;;;;35.17;16.13;;;1.90;99.90;;;;;;5094061;28;20055;-69
2021/01/02 06:01:07;;;;;;;32.60;15.30;;;1.90;99.90;;;;;;5093533;28;20051;-69
2021/01/02 06:03:36;;;;;;;31.80;14.93;;;1.90;99.90;;;;;;5094691;28;20097;-69
2021/01/02 06:06:04;;;;;;;38.87;15.90;;;1.80;99.90;;;;;;5094100;28;20056;-69
2021/01/02 06:08:33;;;;;;;36.17;15.70;;;1.80;99.90;;;;;;5094415;28;20056;-69
2021/01/02 06:11:03;;;;;;;35.57;16.67;;;1.80;99.90;;;;;;5093792;28;20055;-69
2021/01/02 06:13:34;;;;;;;33.80;16.10;;;1.80;99.90;;;;;;5094131;28;20436;-69
2021/01/02 06:16:03;;;;;;;32.10;15.03;;;1.80;99.90;;;;;;5094162;28;20059;-69
2021/01/02 06:18:30;;;;;;;32.10;15.33;;;1.80;99.90;;;;;;5094134;28;20059;-69
2021/01/02 06:21:01;;;;;;;30.13;14.60;;;1.90;99.90;;;;;;5093816;28;20181;-69
2021/01/02 06:23:29;;;;;;;30.97;13.97;;;1.90;99.90;;;;;;5094567;28;20101;-69
2021/01/02 06:25:56;;;;;;;32.30;14.90;;;1.80;99.90;;;;;;5094314;28;20458;-69
2021/01/02 06:28:27;;;;;;;34.60;17.37;;;1.90;99.90;;;;;;5093764;28;20044;-69
2021/01/02 06:31:03;;;;;;;29.87;15.90;;;1.90;99.90;;;;;;5093663;28;20052;-69
2021/01/02 06:33:30;;;;;;;32.40;15.37;;;1.90;99.90;;;;;;5093556;28;20051;-69
2021/01/02 06:35:57;;;;;;;35.60;15.57;;;1.90;99.90;;;;;;5094192;28;20048;-69
2021/01/02 06:38:28;;;;;;;33.83;15.53;;;2.00;99.90;;;;;;5093331;28;20059;-69
2021/01/02 06:40:56;;;;;;;29.73;14.90;;;2.00;99.90;;;;;;5093410;28;20052;-69
2021/01/02 06:43:36;;;;;;;30.80;15.13;;;2.00;99.90;;;;;;5094214;28;20054;-69
2021/01/02 06:46:03;;;;;;;30.83;15.00;;;1.80;99.90;;;;;;5093818;28;20500;-69
2021/01/02 06:48:35;;;;;;;32.17;14.60;;;1.80;99.90;;;;;;5093160;28;20055;-69
2021/01/02 06:51:03;;;;;;;29.33;14.07;;;1.80;99.90;;;;;;5093449;28;20531;-69
2021/01/02 06:53:32;;;;;;;35.63;15.63;;;1.70;99.90;;;;;;5093509;28;20165;-69
2021/01/02 06:55:59;;;;;;;30.93;15.03;;;1.70;99.90;;;;;;5093778;28;20139;-69
2021/01/02 06:58:35;;;;;;;35.13;15.70;;;1.70;99.90;;;;;;5092900;28;20065;-69
2021/01/02 07:01:02;;;;;;;35.20;16.13;;;1.70;99.90;;;;;;5092677;28;20055;-69
2021/01/02 07:03:44;;;;;;;33.03;15.80;;;1.60;99.90;;;;;;5093148;28;20059;-69
2021/01/02 07:06:26;;;;;;;34.57;16.17;;;1.80;99.90;;;;;;5091455;28;20060;-69
2021/01/02 07:08:57;;;;;;;34.80;16.57;;;1.70;99.90;;;;;;5093130;28;20048;-69
2021/01/02 07:11:27;;;;;;;31.73;14.90;;;1.70;99.90;;;;;;5092904;28;20374;-69
2021/01/02 07:14:27;;;;;;;33.77;16.27;;;1.70;99.90;;;;;;5092116;28;20056;-69
2021/01/02 07:16:59;;;;;;;31.87;16.03;;;1.70;99.90;;;;;;5090578;28;20190;-69
2021/01/02 07:19:45;;;;;;;31.30;14.40;;;1.80;99.90;;;;;;5093003;28;20052;-71
2021/01/02 07:22:14;;;;;;;33.60;16.97;;;1.80;99.90;;;;;;5093701;28;20056;-69
2021/01/02 07:24:46;;;;;;;29.97;15.03;;;1.80;99.90;;;;;;5092572;28;20147;-69
2021/01/02 07:27:14;;;;;;;30.97;14.73;;;1.80;99.90;;;;;;5092988;28;20052;-69
2021/01/02 07:29:43;;;;;;;33.00;15.37;;;1.70;99.90;;;;;;5092464;28;20048;-69
2021/01/02 07:32:12;;;;;;;32.57;15.40;;;1.80;99.90;;;;;;5092573;28;20044;-69
2021/01/02 07:34:39;;;;;;;32.00;14.63;;;1.80;99.90;;;;;;5092666;28;20055;-69
2021/01/02 07:37:08;;;;;;;30.93;14.73;;;1.90;99.90;;;;;;5093551;28;20054;-69
2021/01/02 07:39:36;;;;;;;31.70;15.63;;;1.90;99.90;;;;;;5101926;28;20117;-71
2021/01/02 07:42:09;;;;;;;33.03;15.30;;;1.90;99.90;;;;;;5099230;28;20052;-72
2021/01/02 07:44:38;;;;;;;31.53;14.13;;;1.90;99.90;;;;;;5108925;28;20047;-71
2021/01/02 07:47:05;;;;;;;31.93;14.97;;;2.00;99.90;;;;;;5091894;28;20059;-69
2021/01/02 07:49:33;;;;;;;30.07;14.27;;;2.10;99.90;;;;;;5092376;28;20044;-70
2021/01/02 07:51:59;;;;;;;32.20;15.43;;;2.00;99.90;;;;;;5091056;28;20423;-69
2021/01/02 07:54:37;;;;;;;31.07;14.27;;;1.90;99.90;;;;;;5092548;28;20515;-69
2021/01/02 07:57:06;;;;;;;30.03;14.07;;;2.00;99.90;;;;;;5092303;28;20044;-69
2021/01/02 07:59:34;;;;;;;31.00;14.77;;;2.00;99.90;;;;;;5092104;28;20048;-70
2021/01/02 08:02:02;;;;;;;30.03;15.33;;;2.00;99.90;;;;;;5092187;28;20055;-69
2021/01/02 08:04:30;;;;;;;26.23;13.40;;;2.00;99.90;;;;;;5092473;28;20078;-69
2021/01/02 08:07:00;;;;;;;28.30;13.40;;;2.00;99.90;;;;;;5091541;28;20052;-69
2021/01/02 08:09:27;;;;;;;27.60;13.60;;;2.10;99.90;;;;;;5092530;28;20056;-69
2021/01/02 08:11:57;;;;;;;28.43;13.50;;;2.00;99.90;;;;;;5091381;28;20051;-69
2021/01/02 08:14:25;;;;;;;28.17;12.13;;;2.10;99.90;;;;;;5095007;28;20431;-69
2021/01/02 08:17:01;;;;;;;25.00;12.60;;;2.10;99.90;;;;;;5092676;28;20074;-69
2021/01/02 08:19:34;;;;;;;27.40;12.60;;;2.10;99.90;;;;;;5094251;28;20070;-69
2021/01/02 08:22:03;;;;;;;23.87;12.13;;;2.10;99.90;;;;;;5095995;28;20141;-69
2021/01/02 08:24:30;;;;;;;24.10;11.83;;;2.20;99.90;;;;;;5091364;28;20044;-69
2021/01/02 08:26:56;;;;;;;24.90;12.73;;;2.10;99.90;;;;;;5091764;28;20100;-70
2021/01/02 08:29:25;;;;;;;24.33;11.13;;;2.20;99.90;;;;;;5094186;28;20055;-69
2021/01/02 08:31:56;;;;;;;26.20;11.77;;;2.20;99.90;;;;;;5091630;28;20431;-69
2021/01/02 08:34:27;;;;;;;22.80;11.37;;;2.10;99.90;;;;;;5091124;28;20058;-69
2021/01/02 08:36:58;;;;;;;26.17;12.63;;;2.20;99.90;;;;;;5091487;28;20109;-69
2021/01/02 08:39:27;;;;;;;24.13;11.70;;;2.20;99.90;;;;;;5091657;28;20059;-69
2021/01/02 08:41:55;;;;;;;24.07;11.20;;;2.30;99.90;;;;;;5091414;28;20407;-69
2021/01/02 08:44:24;;;;;;;27.87;13.00;;;2.30;99.90;;;;;;5091312;28;20386;-69
2021/01/02 08:46:50;;;;;;;27.63;12.00;;;2.40;99.90;;;;;;5092120;28;20062;-70
2021/01/02 08:49:30;;;;;;;24.00;12.17;;;2.30;99.90;;;;;;5091113;28;20048;-69
2021/01/02 08:52:34;;;;;;;24.00;10.97;;;2.40;99.90;;;;;;5091115;28;20052;-69
2021/01/02 08:55:10;;;;;;;21.23;11.10;;;2.50;99.90;;;;;;5091272;28;20087;-69
2021/01/02 08:57:43;;;;;;;21.23;10.40;;;2.40;99.90;;;;;;5091102;28;20044;-69
2021/01/02 09:00:13;;;;;;;25.00;12.03;;;2.30;99.90;;;;;;5090405;28;20048;-69
2021/01/02 09:02:42;;;;;;;21.40;10.53;;;2.40;99.90;;;;;;5093747;28;20052;-69
2021/01/02 09:05:11;;;;;;;21.33;10.70;;;2.40;99.90;;;;;;5094565;28;20048;-70
2021/01/02 09:07:38;;;;;;;23.10;11.37;;;2.50;99.90;;;;;;5093021;28;20066;-69
2021/01/02 09:10:20;;;;;;;22.37;10.80;;;2.50;99.90;;;;;;5091455;28;20064;-69
2021/01/02 09:13:03;;;;;;;23.03;11.40;;;2.50;99.90;;;;;;5091120;28;20052;-69
2021/01/02 09:15:46;;;;;;;21.33;11.07;;;2.80;99.90;;;;;;5090750;28;20055;-69
2021/01/02 09:18:13;;;;;;;21.73;10.90;;;2.80;99.90;;;;;;5089033;28;20052;-69
2021/01/02 09:20:41;;;;;;;19.27;10.43;;;2.70;99.90;;;;;;5090049;28;20093;-69
2021/01/02 09:23:08;;;;;;;20.13;10.10;;;2.80;99.90;;;;;;5091558;28;20048;-69
2021/01/02 09:25:38;;;;;;;25.17;11.20;;;2.70;99.90;;;;;;5091165;28;20488;-69
2021/01/02 09:28:13;;;;;;;23.83;11.50;;;2.60;99.90;;;;;;5090905;28;20052;-69
2021/01/02 09:30:40;;;;;;;22.17;11.60;;;2.70;99.90;;;;;;5091186;28;20059;-70
2021/01/02 09:33:07;;;;;;;20.67;10.50;;;2.80;99.90;;;;;;5090841;28;20041;-69
2021/01/02 09:35:36;;;;;;;20.33;11.10;;;2.90;99.90;;;;;;5091808;28;20504;-69
2021/01/02 09:38:18;;;;;;;22.47;10.27;;;2.90;99.90;;;;;;5098500;28;20056;-69
2021/01/02 09:40:46;;;;;;;18.53;9.90;;;3.00;99.90;;;;;;5096194;28;20048;-71
2021/01/02 09:43:15;;;;;;;20.93;10.63;;;3.00;99.90;;;;;;5099207;28;20097;-71
2021/01/02 09:45:43;;;;;;;19.83;10.50;;;3.10;99.90;;;;;;5091718;28;20071;-73
2021/01/02 09:48:12;;;;;;;16.73;8.93;;;3.10;99.90;;;;;;5090735;28;20058;-74
2021/01/02 09:50:40;;;;;;;19.63;9.60;;;3.00;99.90;;;;;;5091134;28;20059;-71
2021/01/02 09:53:08;;;;;;;19.83;10.17;;;3.20;99.90;;;;;;5091094;28;20056;-71
2021/01/02 09:55:36;;;;;;;18.07;9.70;;;3.20;99.90;;;;;;5092944;28;20048;-78
2021/01/02 09:58:04;;;;;;;19.27;10.10;;;3.10;99.90;;;;;;5091856;28;20048;-71
2021/01/02 10:00:31;;;;;;;19.20;9.17;;;3.20;99.90;;;;;;5093272;28;20140;-71
2021/01/02 10:02:59;;;;;;;17.77;9.23;;;3.30;99.90;;;;;;5090709;28;20063;-73
2021/01/02 10:05:27;;;;;;;20.07;9.60;;;3.30;99.90;;;;;;5091065;28;20088;-72
2021/01/02 10:07:54;;;;;;;19.73;9.43;;;3.30;99.90;;;;;;5092138;28;20044;-73
2021/01/02 10:10:21;;;;;;;20.13;9.73;;;3.30;99.90;;;;;;5090054;28;20048;-71
2021/01/02 10:12:49;;;;;;;16.87;8.90;;;3.40;99.90;;;;;;5092395;28;20055;-72
2021/01/02 10:15:17;;;;;;;22.83;9.33;;;3.30;99.90;;;;;;5096061;28;20059;-72
2021/01/02 10:17:44;;;;;;;16.90;9.47;;;3.50;99.90;;;;;;5104256;28;20051;-74
2021/01/02 10:20:13;;;;;;;19.73;9.53;;;3.50;99.90;;;;;;5099274;28;20404;-71
2021/01/02 10:22:40;;;;;;;18.57;9.73;;;3.50;99.90;;;;;;5099802;28;20059;-71
2021/01/02 10:25:08;;;;;;;18.63;9.43;;;3.60;99.90;;;;;;5095282;28;20534;-75
2021/01/02 10:27:35;;;;;;;17.50;9.90;;;3.70;99.90;;;;;;5095701;28;20051;-71
2021/01/02 10:30:05;;;;;;;17.17;9.37;;;3.90;99.90;;;;;;5094792;28;20060;-71
2021/01/02 10:32:33;;;;;;;17.00;8.87;;;4.00;99.90;;;;;;5102576;28;20059;-72
2021/01/02 10:35:00;;;;;;;17.97;9.50;;;3.90;99.90;;;;;;5103577;28;20048;-72
2021/01/02 10:37:29;;;;;;;15.57;8.53;;;4.00;99.90;;;;;;5094352;28;20058;-72
2021/01/02 10:39:56;;;;;;;18.00;9.47;;;4.00;99.90;;;;;;5093791;28;20058;-72
2021/01/02 10:42:26;;;;;;;17.03;8.97;;;4.10;99.90;;;;;;5094368;28;20052;-74
2021/01/02 10:44:53;;;;;;;15.30;8.17;;;4.00;99.90;;;;;;5094290;28;20063;-72
2021/01/02 10:47:22;;;;;;;18.30;8.70;;;4.00;99.90;;;;;;5093525;28;20052;-72
2021/01/02 10:49:50;;;;;;;16.43;8.73;;;4.10;99.90;;;;;;5094034;28;20113;-71
2021/01/02 10:52:18;;;;;;;18.10;8.87;;;4.20;99.90;;;;;;5103416;28;20136;-70
2021/01/02 10:54:46;;;;;;;17.90;9.33;;;4.20;99.90;;;;;;5101944;28;20044;-70
2021/01/02 10:57:14;;;;;;;15.77;8.20;;;4.30;99.90;;;;;;5098832;28;20282;-72
2021/01/02 10:59:44;;;;;;;19.40;8.03;;;4.30;99.90;;;;;;5097070;28;20052;-70
2021/01/02 11:02:11;;;;;;;17.23;8.97;;;4.20;99.90;;;;;;5097955;28;20052;-69
2021/01/02 11:04:39;;;;;;;15.37;7.77;;;4.20;99.90;;;;;;5108136;28;20048;-71
2021/01/02 11:07:07;;;;;;;14.70;7.87;;;4.30;99.90;;;;;;5100611;28;20047;-70
2021/01/02 11:09:33;;;;;;;14.07;7.80;;;4.30;99.90;;;;;;5093849;28;20044;-70
2021/01/02 11:12:00;;;;;;;16.43;7.83;;;4.30;99.90;;;;;;5093229;28;20052;-70
2021/01/02 11:14:27;;;;;;;14.13;7.93;;;4.40;99.90;;;;;;5093966;28;20052;-70
2021/01/02 11:16:55;;;;;;;15.03;7.70;;;4.40;99.90;;;;;;5092999;28;20412;-69
2021/01/02 11:19:24;;;;;;;18.90;9.73;;;4.30;99.90;;;;;;5093094;28;20096;-70
2021/01/02 11:21:54;;;;;;;21.07;9.60;;;4.30;99.90;;;;;;5097295;28;20075;-71
2021/01/02 11:24:23;;;;;;;17.93;9.03;;;4.30;99.90;;;;;;5102675;28;20455;-70
2021/01/02 11:26:51;;;;;;;16.53;9.23;;;4.30;99.90;;;;;;5092046;28;21776;-71
2021/01/02 11:29:21;;;;;;;18.07;8.97;;;4.20;99.90;;;;;;5092202;28;20047;-70
2021/01/02 11:31:50;;;;;;;19.33;9.10;;;4.20;99.90;;;;;;5106688;28;20090;-70
2021/01/02 11:34:18;;;;;;;15.93;8.27;;;4.20;99.90;;;;;;5107798;28;20064;-72
2021/01/02 11:36:52;;;;;;;16.67;8.73;;;4.20;99.90;;;;;;5109871;28;20048;-70
2021/01/02 11:39:19;;;;;;;18.20;9.00;;;4.30;99.90;;;;;;5100851;28;20094;-69
2021/01/02 11:41:48;;;;;;;16.93;9.40;;;4.30;99.90;;;;;;5097146;28;20048;-72
2021/01/02 11:44:18;;;;;;;17.30;9.20;;;4.30;99.90;;;;;;5092115;28;20056;-71
2021/01/02 11:46:46;;;;;;;19.50;10.00;;;4.30;99.90;;;;;;5092086;28;20063;-70
2021/01/02 11:49:16;;;;;;;16.63;9.47;;;4.40;99.90;;;;;;5092011;28;20048;-69
2021/01/02 11:51:47;;;;;;;21.90;9.77;;;4.20;99.90;;;;;;5092078;28;20058;-69
2021/01/02 11:54:14;;;;;;;19.60;9.73;;;4.30;99.90;;;;;;5092236;28;20059;-70
2021/01/02 11:56:41;;;;;;;18.10;9.27;;;4.10;99.90;;;;;;5092355;28;20048;-70
2021/01/02 11:59:08;;;;;;;17.67;9.40;;;4.10;99.90;;;;;;5091665;28;20044;-70
2021/01/02 12:01:37;;;;;;;22.13;10.17;;;4.10;99.90;;;;;;5091558;28;20044;-70
2021/01/02 12:04:05;;;;;;;19.40;10.30;;;4.00;99.90;;;;;;5092102;28;20052;-70
2021/01/02 12:06:32;;;;;;;19.43;10.40;;;4.00;99.90;;;;;;5092264;28;20546;-70
2021/01/02 12:08:59;;;;;;;20.10;9.97;;;4.00;99.90;;;;;;5092023;28;20048;-71
2021/01/02 12:11:30;;;;;;;17.00;9.53;;;4.10;99.90;;;;;;5091077;28;20054;-70
2021/01/02 12:13:57;;;;;;;20.00;10.77;;;4.10;99.90;;;;;;5093088;28;20054;-70
2021/01/02 12:16:32;;;;;;;20.50;10.20;;;4.20;99.90;;;;;;5094149;28;20048;-70
2021/01/02 12:18:58;;;;;;;23.83;12.37;;;4.00;99.90;;;;;;5095042;28;20063;-70
2021/01/02 12:21:25;;;;;;;18.00;9.80;;;4.00;99.90;;;;;;5098286;28;20055;-70
2021/01/02 12:23:54;;;;;;;20.67;9.63;;;4.10;99.90;;;;;;5093721;28;20512;-70
2021/01/02 12:26:21;;;;;;;19.47;10.00;;;4.10;99.90;;;;;;5094468;28;20409;-70
2021/01/02 12:28:48;;;;;;;19.07;10.23;;;4.00;99.90;;;;;;5092540;28;20484;-70
2021/01/02 12:31:19;;;;;;;21.40;11.43;;;3.90;99.90;;;;;;5093052;28;20052;-70
2021/01/02 12:33:47;;;;;;;19.73;10.17;;;3.90;99.90;;;;;;5092836;28;20048;-70
2021/01/02 12:36:15;;;;;;;22.87;11.17;;;3.90;99.90;;;;;;5091702;28;20051;-70
2021/01/02 12:38:42;;;;;;;20.77;10.87;;;3.90;99.90;;;;;;5091202;28;20078;-69
2021/01/02 12:41:14;;;;;;;21.50;10.37;;;3.80;99.90;;;;;;5091821;28;20067;-70
2021/01/02 12:43:40;;;;;;;20.80;10.13;;;3.60;99.90;;;;;;5091758;28;20488;-69
2021/01/02 12:46:07;;;;;;;19.47;10.10;;;3.70;99.90;;;;;;5091763;28;20048;-70
2021/01/02 12:48:34;;;;;;;18.37;10.20;;;3.60;99.90;;;;;;5091134;28;20048;-70
2021/01/02 12:51:02;;;;;;;17.67;9.20;;;3.70;99.90;;;;;;5091028;28;20052;-70
2021/01/02 12:53:29;;;;;;;19.20;10.80;;;3.70;99.90;;;;;;5090506;28;20072;-70
2021/01/02 12:55:56;;;;;;;21.43;10.47;;;3.70;99.90;;;;;;5090395;28;20093;-69
2021/01/02 12:58:22;;;;;;;19.90;10.20;;;3.70;99.90;;;;;;5093308;28;20062;-70